Terminal Aerodrome Forecast
Issued by NWS Brownsville, TX

Home | Current Version | Previous Version | Text Only | Print | Product List | Glossary On
Versions: 1 2 3 4 5 6 7 8 9 10 11 12 13 14 15
000
FTUS44 KBRO 160536
TAFBRO
TAF
KBRO 160536Z 1606/1706 32008KT P6SM -DZRA OVC024
     FM161500 31010KT P6SM -DZRA OVC015
     FM162300 28010KT P6SM OVC025
     FM170300 27005KT P6SM OVC035=

USA.gov is the U.S. government's official web portal to all federal, state and local government web resources and services.